CGMPW BISF-BISF
Flight info
| Callsign | CGMPW |
|---|---|
| Flight time | N/A |
| Altitude | 1200 |
| Route | VFR FLIGHT IN THE SOUTHERN PART OF ICELAND / EXPLORING AROUND / |
| Aircraft | AS50/L-VGD/A |
Departure
| Time | 2026-04-26 09:36 |
|---|---|
| Airport | Selfoss Airport (BISF) |
Arrival
| Time | N/A |
|---|---|
| Airport | Selfoss Airport (BISF) |
| Time | Latitude | Longitude | Altitude | Speed | Heading |
|---|---|---|---|---|---|
| 2026-04-26 09:23 | 63.92837 | -21.03403 | 43 ft | 0 kts | 132° |
| 2026-04-26 09:25 | 63.92835 | -21.03389 | 149 ft | 10 kts | 126° |
| 2026-04-26 09:25 | 63.92438 | -21.02704 | 301 ft | 109 kts | 149° |
| 2026-04-26 09:25 | 63.91745 | -21.01935 | 337 ft | 120 kts | 148° |
| 2026-04-26 09:26 | 63.90938 | -21.01196 | 439 ft | 126 kts | 148° |
| 2026-04-26 09:26 | 63.90190 | -21.00006 | 439 ft | 132 kts | 142° |
| 2026-04-26 09:26 | 63.89468 | -20.98995 | 566 ft | 112 kts | 147° |
| 2026-04-26 09:26 | 63.88742 | -20.98094 | 416 ft | 120 kts | 150° |
| 2026-04-26 09:27 | 63.88005 | -20.97298 | 430 ft | 116 kts | 151° |
| 2026-04-26 09:27 | 63.87297 | -20.96502 | 484 ft | 114 kts | 152° |
| 2026-04-26 09:27 | 63.86565 | -20.95826 | 445 ft | 117 kts | 158° |
| 2026-04-26 09:27 | 63.85810 | -20.95179 | 445 ft | 115 kts | 153° |
| 2026-04-26 09:28 | 63.85083 | -20.94469 | 437 ft | 114 kts | 152° |
| 2026-04-26 09:28 | 63.84401 | -20.93698 | 503 ft | 107 kts | 146° |
| 2026-04-26 09:28 | 63.83780 | -20.92792 | 497 ft | 106 kts | 142° |
| 2026-04-26 09:28 | 63.83167 | -20.91869 | 520 ft | 105 kts | 143° |
| 2026-04-26 09:29 | 63.82590 | -20.90912 | 556 ft | 102 kts | 138° |
| 2026-04-26 09:29 | 63.82052 | -20.89890 | 565 ft | 103 kts | 142° |
| 2026-04-26 09:29 | 63.81452 | -20.89025 | 552 ft | 105 kts | 146° |
| 2026-04-26 09:29 | 63.80886 | -20.87986 | 545 ft | 104 kts | 135° |
| 2026-04-26 09:30 | 63.80331 | -20.86939 | 558 ft | 105 kts | 141° |
| 2026-04-26 09:30 | 63.79755 | -20.85864 | 457 ft | 110 kts | 136° |
| 2026-04-26 09:30 | 63.79210 | -20.84643 | 419 ft | 111 kts | 135° |
| 2026-04-26 09:30 | 63.78646 | -20.83464 | 386 ft | 112 kts | 135° |
| 2026-04-26 09:31 | 63.78143 | -20.82145 | 301 ft | 115 kts | 130° |
| 2026-04-26 09:31 | 63.77712 | -20.80660 | 293 ft | 108 kts | 119° |
| 2026-04-26 09:31 | 63.77283 | -20.79269 | 231 ft | 108 kts | 128° |
| 2026-04-26 09:31 | 63.76852 | -20.77946 | 338 ft | 97 kts | 127° |
| 2026-04-26 09:32 | 63.76478 | -20.76675 | 456 ft | 94 kts | 120° |
| 2026-04-26 09:32 | 63.76132 | -20.75403 | 641 ft | 97 kts | 118° |
| 2026-04-26 09:32 | 63.75695 | -20.74129 | 521 ft | 108 kts | 122° |
| 2026-04-26 09:32 | 63.75207 | -20.72671 | 532 ft | 114 kts | 127° |
| 2026-04-26 09:33 | 63.74642 | -20.71422 | 607 ft | 117 kts | 134° |
| 2026-04-26 09:33 | 63.74054 | -20.70201 | 418 ft | 123 kts | 133° |
| 2026-04-26 09:33 | 63.73618 | -20.68694 | 343 ft | 116 kts | 123° |
| 2026-04-26 09:33 | 63.73108 | -20.67210 | 300 ft | 121 kts | 123° |
| 2026-04-26 09:34 | 63.72590 | -20.65649 | 171 ft | 125 kts | 131° |
| 2026-04-26 09:34 | 63.72048 | -20.64175 | 204 ft | 120 kts | 128° |
| 2026-04-26 09:34 | 63.71681 | -20.63215 | 201 ft | 119 kts | 130° |
| 2026-04-26 09:34 | 63.71167 | -20.61832 | 76 ft | 122 kts | 129° |
| 2026-04-26 09:35 | 63.70635 | -20.60402 | 179 ft | 113 kts | 130° |
| 2026-04-26 09:35 | 63.70145 | -20.58968 | 198 ft | 115 kts | 127° |
| 2026-04-26 09:35 | 63.69637 | -20.57762 | 532 ft | 96 kts | 117° |
| 2026-04-26 09:35 | 63.69307 | -20.56330 | 460 ft | 117 kts | 129° |
| 2026-04-26 09:36 | 63.68747 | -20.55008 | 518 ft | 114 kts | 131° |
| 2026-04-26 09:36 | 63.68209 | -20.53699 | 584 ft | 116 kts | 130° |
| 2026-04-26 09:36 | 63.67672 | -20.52449 | 663 ft | 114 kts | 134° |
| 2026-04-26 09:36 | 63.67088 | -20.51219 | 565 ft | 121 kts | 134° |
| 2026-04-26 09:37 | 63.66433 | -20.49906 | 423 ft | 127 kts | 134° |
| 2026-04-26 09:37 | 63.65807 | -20.48535 | 379 ft | 125 kts | 133° |
| 2026-04-26 09:37 | 63.65269 | -20.47134 | 581 ft | 112 kts | 129° |
| 2026-04-26 09:37 | 63.64734 | -20.45676 | 376 ft | 129 kts | 128° |
| 2026-04-26 09:38 | 63.64196 | -20.44103 | 405 ft | 121 kts | 124° |
| 2026-04-26 09:38 | 63.63692 | -20.42550 | 368 ft | 121 kts | 121° |
| 2026-04-26 09:38 | 63.63237 | -20.41001 | 508 ft | 113 kts | 122° |
| 2026-04-26 09:38 | 63.62759 | -20.39435 | 362 ft | 124 kts | 124° |
| 2026-04-26 09:39 | 63.62317 | -20.37933 | 517 ft | 113 kts | 116° |
| 2026-04-26 09:39 | 63.61974 | -20.36323 | 560 ft | 117 kts | 116° |
| 2026-04-26 09:39 | 63.61633 | -20.34613 | 456 ft | 127 kts | 122° |
| 2026-04-26 09:39 | 63.61128 | -20.33032 | 217 ft | 131 kts | 127° |
| 2026-04-26 09:40 | 63.60642 | -20.31426 | 307 ft | 114 kts | 121° |
| 2026-04-26 09:40 | 63.60208 | -20.29920 | 386 ft | 118 kts | 118° |
| 2026-04-26 09:40 | 63.59784 | -20.28328 | 446 ft | 119 kts | 120° |
| 2026-04-26 09:40 | 63.59359 | -20.26678 | 299 ft | 125 kts | 119° |
| 2026-04-26 09:41 | 63.58931 | -20.25057 | 452 ft | 116 kts | 118° |
| 2026-04-26 09:41 | 63.58554 | -20.23515 | 708 ft | 106 kts | 121° |
| 2026-04-26 09:41 | 63.58145 | -20.22162 | 629 ft | 108 kts | 128° |
| 2026-04-26 09:41 | 63.57702 | -20.20805 | 452 ft | 108 kts | 127° |
| 2026-04-26 09:42 | 63.57255 | -20.19453 | 409 ft | 105 kts | 124° |
| 2026-04-26 09:42 | 63.56878 | -20.18105 | 482 ft | 97 kts | 117° |
| 2026-04-26 09:42 | 63.56512 | -20.16989 | 506 ft | 79 kts | 135° |
| 2026-04-26 09:42 | 63.56123 | -20.16168 | 438 ft | 79 kts | 133° |
| 2026-04-26 09:43 | 63.55821 | -20.15120 | 222 ft | 74 kts | 104° |
| 2026-04-26 09:43 | 63.55838 | -20.14634 | 134 ft | 8 kts | 109° |
| 2026-04-26 09:43 | 63.55830 | -20.14621 | 53 ft | 8 kts | 111° |
| 2026-04-26 09:43 | 63.55824 | -20.14587 | 23 ft | 0 kts | 114° |
| 2026-04-26 09:45 | 63.55677 | -20.14564 | 182 ft | 72 kts | 168° |
| 2026-04-26 09:45 | 63.55009 | -20.14920 | 345 ft | 112 kts | 175° |
| 2026-04-26 09:45 | 63.54326 | -20.15374 | 937 ft | 98 kts | 191° |
| 2026-04-26 09:45 | 63.53615 | -20.15969 | 808 ft | 110 kts | 187° |
| 2026-04-26 09:46 | 63.52798 | -20.16801 | 435 ft | 138 kts | 192° |
| 2026-04-26 09:46 | 63.51919 | -20.17553 | 309 ft | 133 kts | 187° |
| 2026-04-26 09:46 | 63.51046 | -20.17979 | 466 ft | 126 kts | 179° |
| 2026-04-26 09:46 | 63.50171 | -20.18266 | 553 ft | 128 kts | 176° |
| 2026-04-26 09:47 | 63.49284 | -20.18493 | 578 ft | 130 kts | 176° |
| 2026-04-26 09:47 | 63.48379 | -20.18696 | 518 ft | 128 kts | 173° |
| 2026-04-26 09:47 | 63.47488 | -20.18704 | 465 ft | 129 kts | 173° |
| 2026-04-26 09:47 | 63.46598 | -20.18536 | 350 ft | 127 kts | 160° |
| 2026-04-26 09:48 | 63.46810 | -20.17606 | 470 ft | 116 kts | 34° |
| 2026-04-26 09:48 | 63.46595 | -20.16913 | 467 ft | 93 kts | 198° |
| 2026-04-26 09:48 | 63.46603 | -20.17840 | 628 ft | 32 kts | 35° |
| 2026-04-26 09:48 | 63.46718 | -20.17862 | 339 ft | 25 kts | 81° |
| 2026-04-26 09:49 | 63.46782 | -20.17694 | 183 ft | 9 kts | 95° |
| 2026-04-26 09:49 | 63.46781 | -20.17678 | 171 ft | 0 kts | 101° |
| 2026-04-26 09:49 | 63.46721 | -20.17692 | 502 ft | 37 kts | 148° |
| 2026-04-26 09:49 | 63.46312 | -20.18719 | 792 ft | 124 kts | 226° |
| 2026-04-26 09:50 | 63.45758 | -20.20383 | 957 ft | 148 kts | 225° |
| 2026-04-26 09:50 | 63.45224 | -20.22565 | 954 ft | 163 kts | 244° |
| 2026-04-26 09:50 | 63.44860 | -20.24880 | 694 ft | 159 kts | 245° |
| 2026-04-26 09:50 | 63.44361 | -20.26990 | 665 ft | 149 kts | 226° |
| 2026-04-26 09:51 | 63.43633 | -20.28569 | 768 ft | 136 kts | 207° |
| 2026-04-26 09:51 | 63.42809 | -20.29600 | 764 ft | 134 kts | 193° |
| 2026-04-26 09:51 | 63.41985 | -20.30626 | 735 ft | 134 kts | 201° |
| 2026-04-26 09:51 | 63.41187 | -20.31709 | 745 ft | 138 kts | 203° |
| 2026-04-26 09:52 | 63.40315 | -20.32498 | 571 ft | 133 kts | 174° |
| 2026-04-26 09:52 | 63.38584 | -20.32074 | 464 ft | 141 kts | 195° |
| 2026-04-26 09:52 | 63.37921 | -20.33745 | 475 ft | 138 kts | 218° |
| 2026-04-26 09:53 | 63.37142 | -20.34856 | 524 ft | 133 kts | 204° |
| 2026-04-26 09:53 | 63.36351 | -20.35986 | 481 ft | 137 kts | 207° |
| 2026-04-26 09:53 | 63.35592 | -20.37230 | 469 ft | 140 kts | 211° |
| 2026-04-26 09:53 | 63.34802 | -20.38642 | 393 ft | 139 kts | 206° |
| 2026-04-26 09:54 | 63.34029 | -20.39894 | 375 ft | 139 kts | 202° |
| 2026-04-26 09:54 | 63.33529 | -20.41616 | 615 ft | 134 kts | 260° |
| 2026-04-26 09:54 | 63.33276 | -20.43584 | 792 ft | 121 kts | 231° |
| 2026-04-26 09:54 | 63.32967 | -20.44632 | 913 ft | 40 kts | 206° |
| 2026-04-26 09:55 | 63.32926 | -20.44933 | 856 ft | 21 kts | 215° |
| 2026-04-26 09:55 | 63.32930 | -20.45152 | 768 ft | 8 kts | 209° |
| 2026-04-26 09:55 | 63.32950 | -20.45351 | 695 ft | 20 kts | 214° |
| 2026-04-26 09:55 | 63.32916 | -20.46181 | 819 ft | 115 kts | 267° |
| 2026-04-26 09:56 | 63.33519 | -20.47158 | 1316 ft | 121 kts | 356° |
| 2026-04-26 09:56 | 63.34434 | -20.47600 | 1502 ft | 140 kts | 358° |
| 2026-04-26 09:56 | 63.35455 | -20.48102 | 1391 ft | 160 kts | 355° |
| 2026-04-26 09:56 | 63.36582 | -20.48608 | 1135 ft | 168 kts | 358° |
| 2026-04-26 09:57 | 63.37739 | -20.49010 | 573 ft | 167 kts | 4° |
| 2026-04-26 09:57 | 63.38818 | -20.49269 | 319 ft | 150 kts | 4° |
| 2026-04-26 09:57 | 63.39838 | -20.49589 | 321 ft | 149 kts | 1° |
| 2026-04-26 09:57 | 63.40859 | -20.49829 | 364 ft | 148 kts | 4° |
| 2026-04-26 09:58 | 63.41897 | -20.50085 | 325 ft | 150 kts | 359° |
| 2026-04-26 09:58 | 63.42926 | -20.50394 | 347 ft | 147 kts | 360° |
| 2026-04-26 09:58 | 63.43911 | -20.50772 | 411 ft | 144 kts | 359° |
| 2026-04-26 09:58 | 63.44914 | -20.51132 | 462 ft | 146 kts | 2° |
| 2026-04-26 09:59 | 63.45854 | -20.51274 | 452 ft | 123 kts | 7° |
| 2026-04-26 09:59 | 63.46636 | -20.51343 | 478 ft | 106 kts | 11° |
| 2026-04-26 09:59 | 63.47370 | -20.51503 | 462 ft | 106 kts | 9° |
| 2026-04-26 09:59 | 63.48033 | -20.51617 | 378 ft | 76 kts | 18° |
| 2026-04-26 10:00 | 63.48501 | -20.51424 | 335 ft | 73 kts | 27° |
| 2026-04-26 10:00 | 63.48819 | -20.51392 | 162 ft | 16 kts | 61° |
| 2026-04-26 10:00 | 63.48855 | -20.51352 | 111 ft | 3 kts | 87° |
| 2026-04-26 10:00 | 63.48860 | -20.51336 | 110 ft | 0 kts | 93° |
| 2026-04-26 10:01 | 63.48880 | -20.51347 | 178 ft | 6 kts | 85° |